Time;durP1;ratioP1;P1;durP2;ratioP2;P2;SDS_P1;SDS_P2;PMS_P1;PMS_P2;Temp;Humidity;BMP_temperature;BMP_pressure;BME280_temperature;BME280_humidity;BME280_pressure;Samples;Min_cycle;Max_cycle;Signal;HPM_P1;HPM_P2
2021/04/16 00:00:08;;;;;;;2.45;2.10;;;3.90;89.20;;;;;;5136524;27;20471;-69
2021/04/16 00:02:34;;;;;;;4.97;2.28;;;4.00;89.60;;;;;;5137420;27;20035;-69
2021/04/16 00:05:00;;;;;;;3.38;1.98;;;4.00;88.70;;;;;;5135742;27;20401;-69
2021/04/16 00:07:25;;;;;;;6.03;2.00;;;4.10;88.70;;;;;;5137189;27;20100;-69
2021/04/16 00:09:51;;;;;;;3.90;2.00;;;4.10;88.60;;;;;;5137658;27;20039;-69
2021/04/16 00:12:17;;;;;;;6.07;2.10;;;4.10;88.50;;;;;;5136472;27;20375;-69
2021/04/16 00:14:42;;;;;;;5.15;2.05;;;4.10;89.20;;;;;;5135557;27;20031;-69
2021/04/16 00:17:09;;;;;;;3.63;2.25;;;4.10;88.60;;;;;;5136906;27;20046;-69
2021/04/16 00:19:35;;;;;;;7.65;3.65;;;4.00;88.70;;;;;;5136844;27;20055;-69
2021/04/16 00:22:01;;;;;;;3.92;2.22;;;4.10;88.80;;;;;;5137236;27;20109;-69
2021/04/16 00:24:26;;;;;;;6.43;2.15;;;4.00;88.70;;;;;;5136966;27;20180;-69
2021/04/16 00:26:52;;;;;;;8.77;2.50;;;3.90;89.10;;;;;;5136965;27;20095;-69
2021/04/16 00:29:18;;;;;;;4.35;1.95;;;3.90;89.30;;;;;;5137446;27;20118;-69
2021/04/16 00:31:50;;;;;;;6.40;2.30;;;3.90;89.70;;;;;;5136814;27;20054;-69
2021/04/16 00:34:25;;;;;;;7.20;2.15;;;3.90;89.90;;;;;;5136002;27;20449;-71
2021/04/16 00:36:52;;;;;;;5.55;2.10;;;3.90;89.90;;;;;;5136402;27;20172;-69
2021/04/16 00:39:20;;;;;;;3.53;1.85;;;3.90;89.60;;;;;;5136476;27;20490;-69
2021/04/16 00:41:47;;;;;;;4.18;2.40;;;3.90;89.80;;;;;;5137138;27;20031;-69
2021/04/16 00:44:12;;;;;;;5.53;2.35;;;3.80;89.80;;;;;;5135433;27;20062;-69
2021/04/16 00:46:47;;;;;;;6.97;2.17;;;3.70;90.00;;;;;;5136321;27;20478;-69
2021/04/16 00:49:18;;;;;;;4.25;2.40;;;3.60;90.40;;;;;;5136503;27;20035;-69
2021/04/16 00:51:50;;;;;;;5.53;2.33;;;3.60;90.70;;;;;;5137008;27;20039;-69
2021/04/16 00:54:20;;;;;;;12.77;2.92;;;3.50;90.90;;;;;;5136303;27;20088;-69
2021/04/16 00:56:48;;;;;;;6.10;2.53;;;3.50;90.90;;;;;;5135835;27;20031;-68
2021/04/16 00:59:15;;;;;;;10.88;2.90;;;3.60;90.90;;;;;;5135297;27;20056;-69
2021/04/16 01:01:41;;;;;;;8.48;2.40;;;3.60;90.90;;;;;;5136047;27;20038;-69
2021/04/16 01:04:07;;;;;;;4.97;2.55;;;3.60;90.70;;;;;;5136652;27;20031;-69
2021/04/16 01:06:33;;;;;;;7.07;2.90;;;3.70;90.80;;;;;;5135771;27;20073;-69
2021/04/16 01:08:59;;;;;;;9.15;3.17;;;3.70;90.70;;;;;;5134752;27;20031;-69
2021/04/16 01:11:27;;;;;;;7.63;3.10;;;3.80;90.80;;;;;;5136413;27;20089;-69
2021/04/16 01:13:53;;;;;;;5.10;2.92;;;3.80;90.80;;;;;;5136198;27;20046;-69
2021/04/16 01:16:24;;;;;;;6.47;3.08;;;3.80;90.80;;;;;;5134512;27;20479;-69
2021/04/16 01:18:52;;;;;;;4.82;3.20;;;3.90;90.80;;;;;;5136064;27;20043;-69
2021/04/16 01:21:28;;;;;;;8.32;3.17;;;3.80;90.70;;;;;;5134537;27;20058;-69
2021/04/16 01:24:03;;;;;;;6.15;2.33;;;3.80;90.80;;;;;;5136096;27;20039;-69
2021/04/16 01:26:39;;;;;;;10.15;3.45;;;3.80;90.70;;;;;;5135283;27;20032;-69
2021/04/16 01:29:06;;;;;;;6.55;3.17;;;3.70;90.70;;;;;;5135634;27;20039;-69
2021/04/16 01:31:32;;;;;;;9.13;4.45;;;3.70;90.80;;;;;;5135933;27;20041;-69
2021/04/16 01:33:58;;;;;;;6.82;3.88;;;3.60;91.00;;;;;;5135357;27;20035;-69
2021/04/16 01:36:34;;;;;;;14.45;4.00;;;3.50;91.10;;;;;;5134987;27;20047;-69
2021/04/16 01:39:02;;;;;;;11.32;4.57;;;3.40;91.50;;;;;;5135739;27;20374;-69
2021/04/16 01:41:30;;;;;;;8.70;4.30;;;3.30;91.80;;;;;;5135884;27;20386;-69
2021/04/16 01:44:13;;;;;;;12.30;4.13;;;3.30;91.90;;;;;;5135887;27;20464;-69
2021/04/16 01:47:00;;;;;;;7.88;4.15;;;3.30;92.20;;;;;;5134976;27;20042;-69
2021/04/16 01:49:29;;;;;;;9.38;4.50;;;3.30;92.20;;;;;;5135404;27;20071;-69
2021/04/16 01:51:56;;;;;;;8.95;4.50;;;3.30;92.10;;;;;;5135074;27;20510;-69
2021/04/16 01:54:29;;;;;;;10.25;4.25;;;3.30;92.20;;;;;;5135441;27;20035;-70
2021/04/16 01:57:05;;;;;;;7.45;3.72;;;3.40;92.20;;;;;;5134935;27;20142;-69
2021/04/16 01:59:34;;;;;;;9.10;3.67;;;3.50;92.00;;;;;;5135260;27;20408;-69
2021/04/16 02:02:02;;;;;;;10.40;4.38;;;3.50;91.90;;;;;;5135590;27;20053;-69
2021/04/16 02:04:27;;;;;;;7.80;3.60;;;3.60;92.10;;;;;;5134026;27;20067;-69
2021/04/16 02:06:53;;;;;;;10.57;4.40;;;3.50;91.80;;;;;;5133459;27;20513;-69
2021/04/16 02:09:26;;;;;;;10.10;4.07;;;3.50;91.90;;;;;;5133546;27;20062;-69
2021/04/16 02:11:52;;;;;;;10.07;4.27;;;3.50;92.00;;;;;;5135254;27;20118;-69
2021/04/16 02:14:21;;;;;;;7.88;4.40;;;3.50;91.90;;;;;;5134568;27;20315;-69
2021/04/16 02:16:50;;;;;;;6.93;3.80;;;3.40;91.90;;;;;;5134277;27;20039;-69
2021/04/16 02:19:16;;;;;;;9.68;4.00;;;3.40;92.00;;;;;;5134694;27;20035;-69
2021/04/16 02:21:41;;;;;;;7.85;4.53;;;3.40;92.00;;;;;;5134662;27;20057;-69
2021/04/16 02:24:08;;;;;;;9.57;4.00;;;3.50;92.10;;;;;;5134537;27;20133;-69
2021/04/16 02:26:35;;;;;;;7.60;4.13;;;3.50;91.90;;;;;;5134224;27;20063;-69
2021/04/16 02:29:04;;;;;;;9.88;4.63;;;3.50;91.90;;;;;;5134601;27;20034;-69
2021/04/16 02:31:30;;;;;;;11.10;4.35;;;3.50;91.90;;;;;;5134572;27;20046;-69
2021/04/16 02:33:56;;;;;;;12.00;4.60;;;3.50;91.90;;;;;;5135025;27;20038;-69
2021/04/16 02:36:24;;;;;;;11.50;4.20;;;3.50;91.90;;;;;;5134156;27;20036;-69
2021/04/16 02:38:51;;;;;;;10.57;4.10;;;3.50;91.80;;;;;;5134623;27;20080;-69
2021/04/16 02:41:17;;;;;;;9.00;4.20;;;3.50;91.70;;;;;;5134318;27;20399;-69
2021/04/16 02:43:43;;;;;;;14.52;4.75;;;3.50;91.80;;;;;;5134404;27;20039;-69
2021/04/16 02:46:08;;;;;;;15.57;5.10;;;3.40;91.90;;;;;;5133991;27;20031;-69
2021/04/16 02:48:34;;;;;;;9.68;4.72;;;3.30;92.00;;;;;;5135308;27;20066;-69
2021/04/16 02:51:00;;;;;;;6.82;5.13;;;3.30;92.50;;;;;;5134457;27;20065;-69
2021/04/16 02:53:26;;;;;;;20.17;5.15;;;3.20;92.60;;;;;;5133538;28;20391;-69
2021/04/16 02:55:52;;;;;;;11.32;4.30;;;3.20;92.60;;;;;;5134100;27;20039;-69
2021/04/16 02:58:18;;;;;;;10.85;4.22;;;3.20;92.70;;;;;;5134150;27;20111;-69
2021/04/16 03:00:43;;;;;;;11.15;4.15;;;3.20;92.90;;;;;;5134104;28;20077;-69
2021/04/16 03:03:09;;;;;;;9.10;5.00;;;3.10;93.00;;;;;;5134419;27;20031;-69
2021/04/16 03:05:35;;;;;;;6.88;3.80;;;3.10;93.10;;;;;;5133800;27;20076;-69
2021/04/16 03:08:00;;;;;;;13.48;4.20;;;3.10;93.10;;;;;;5133993;27;20046;-69
2021/04/16 03:10:30;;;;;;;8.75;4.20;;;3.20;93.10;;;;;;5134240;27;20032;-69
2021/04/16 03:12:56;;;;;;;8.90;4.40;;;3.20;93.00;;;;;;5134538;27;20031;-69
2021/04/16 03:15:23;;;;;;;8.75;4.40;;;3.30;92.80;;;;;;5133784;27;20050;-69
2021/04/16 03:17:49;;;;;;;9.07;3.95;;;3.20;92.80;;;;;;5132859;28;20039;-69
2021/04/16 03:20:16;;;;;;;11.25;4.43;;;3.20;93.00;;;;;;5133970;27;20039;-69
2021/04/16 03:22:42;;;;;;;14.48;4.32;;;3.20;93.10;;;;;;5135497;27;20047;-69
2021/04/16 03:25:09;;;;;;;10.57;4.30;;;3.20;93.10;;;;;;5136845;27;20039;-69
2021/04/16 03:27:36;;;;;;;6.95;4.00;;;3.30;93.00;;;;;;5137789;27;20041;-69
2021/04/16 03:30:05;;;;;;;9.25;5.32;;;3.20;92.80;;;;;;5137794;27;20038;-69
2021/04/16 03:32:30;;;;;;;10.20;4.53;;;3.20;92.80;;;;;;5137680;27;20035;-70
2021/04/16 03:34:56;;;;;;;7.10;4.25;;;3.10;93.00;;;;;;5136560;27;20035;-69
2021/04/16 03:37:22;;;;;;;6.93;3.80;;;3.20;93.10;;;;;;5137511;27;20126;-69
2021/04/16 03:39:48;;;;;;;9.60;4.07;;;3.20;92.90;;;;;;5137681;27;20043;-69
2021/04/16 03:42:13;;;;;;;9.10;4.03;;;3.20;92.80;;;;;;5136556;27;20092;-69
2021/04/16 03:44:40;;;;;;;7.38;4.13;;;3.20;92.70;;;;;;5136192;27;20444;-69
2021/04/16 03:47:05;;;;;;;14.02;5.05;;;3.20;92.90;;;;;;5137918;27;20038;-70
2021/04/16 03:49:31;;;;;;;9.30;3.70;;;3.10;93.00;;;;;;5137589;27;20031;-69
2021/04/16 03:51:59;;;;;;;11.43;3.60;;;3.10;93.30;;;;;;5137556;27;20083;-69
2021/04/16 03:54:27;;;;;;;8.85;3.75;;;3.10;93.30;;;;;;5137144;27;20035;-70
2021/04/16 03:56:53;;;;;;;8.40;3.90;;;3.10;93.20;;;;;;5137826;27;20056;-69
2021/04/16 03:59:20;;;;;;;11.05;4.05;;;3.10;93.00;;;;;;5138114;27;20027;-70
2021/04/16 04:01:46;;;;;;;9.50;3.88;;;3.10;93.10;;;;;;5137933;27;20035;-69
2021/04/16 04:04:13;;;;;;;7.25;3.63;;;3.00;93.20;;;;;;5138602;27;20031;-70
2021/04/16 04:06:38;;;;;;;10.50;4.75;;;3.10;93.40;;;;;;5136775;27;20035;-70
2021/04/16 04:09:05;;;;;;;13.20;4.43;;;3.20;93.10;;;;;;5137207;27;20088;-71
2021/04/16 04:11:31;;;;;;;7.18;3.95;;;3.20;93.00;;;;;;5137233;27;20067;-70
2021/04/16 04:13:58;;;;;;;11.60;3.85;;;3.20;92.80;;;;;;5135707;27;20027;-70
2021/04/16 04:16:24;;;;;;;7.75;3.80;;;3.20;92.70;;;;;;5136598;27;20498;-70
2021/04/16 04:18:50;;;;;;;5.57;3.80;;;3.10;92.70;;;;;;5136879;27;20039;-70
2021/04/16 04:21:16;;;;;;;7.75;4.13;;;3.10;92.70;;;;;;5136809;27;20035;-70
2021/04/16 04:23:42;;;;;;;8.43;5.10;;;3.10;92.80;;;;;;5136945;27;20038;-71
2021/04/16 04:26:07;;;;;;;6.05;3.63;;;3.10;92.80;;;;;;5137091;27;20054;-70
2021/04/16 04:28:34;;;;;;;6.20;3.53;;;3.10;92.80;;;;;;5137428;27;20046;-70
2021/04/16 04:31:00;;;;;;;9.77;5.03;;;3.00;92.70;;;;;;5135511;27;20046;-70
2021/04/16 04:33:26;;;;;;;8.20;4.15;;;3.10;92.80;;;;;;5136202;27;20031;-70
2021/04/16 04:35:52;;;;;;;8.82;4.03;;;3.10;92.80;;;;;;5136258;27;20115;-69
2021/04/16 04:38:18;;;;;;;11.32;4.03;;;3.10;92.80;;;;;;5136695;27;20039;-70
2021/04/16 04:40:44;;;;;;;14.95;4.90;;;3.00;92.80;;;;;;5135914;27;20035;-69
2021/04/16 04:43:10;;;;;;;7.40;4.20;;;3.10;92.90;;;;;;5136710;27;20114;-70
2021/04/16 04:45:36;;;;;;;9.75;4.28;;;3.10;93.00;;;;;;5136251;27;20129;-70
2021/04/16 04:48:02;;;;;;;12.32;4.30;;;3.10;92.90;;;;;;5136614;27;20383;-70
2021/04/16 04:50:28;;;;;;;10.90;4.45;;;3.20;92.90;;;;;;5136810;27;20039;-70
2021/04/16 04:52:54;;;;;;;10.63;4.80;;;3.10;92.90;;;;;;5136726;27;20037;-69
2021/04/16 04:55:24;;;;;;;10.07;4.88;;;3.10;92.90;;;;;;5135138;27;20039;-69
2021/04/16 04:57:52;;;;;;;14.20;5.72;;;3.10;93.20;;;;;;5118073;27;20452;-70
2021/04/16 05:00:19;;;;;;;12.95;6.50;;;3.10;93.50;;;;;;5136450;27;20043;-70
2021/04/16 05:02:45;;;;;;;13.43;5.80;;;3.10;93.80;;;;;;5136434;27;20038;-69
2021/04/16 05:05:12;;;;;;;15.40;6.32;;;3.20;94.00;;;;;;5136008;27;20483;-70
2021/04/16 05:07:38;;;;;;;15.68;5.80;;;3.30;94.10;;;;;;5136534;27;20050;-70
2021/04/16 05:10:05;;;;;;;15.55;6.25;;;3.40;94.10;;;;;;5136103;27;20035;-70
2021/04/16 05:12:31;;;;;;;11.00;6.28;;;3.50;93.90;;;;;;5134923;27;20063;-70
2021/04/16 05:14:56;;;;;;;13.40;8.00;;;3.60;93.90;;;;;;5135836;27;20069;-70
2021/04/16 05:17:22;;;;;;;9.82;6.95;;;3.70;93.90;;;;;;5136969;27;20034;-70
2021/04/16 05:19:48;;;;;;;17.00;7.18;;;3.80;93.90;;;;;;5136104;27;20043;-70
2021/04/16 05:22:15;;;;;;;12.05;6.72;;;4.00;93.80;;;;;;5136293;27;20054;-69
2021/04/16 05:24:40;;;;;;;16.55;6.53;;;4.20;93.50;;;;;;5134994;27;20039;-70
2021/04/16 05:27:09;;;;;;;17.38;7.00;;;4.30;93.40;;;;;;5135609;27;20047;-70
2021/04/16 05:29:35;;;;;;;12.80;5.78;;;4.50;93.20;;;;;;5134548;27;20039;-70
2021/04/16 05:32:00;;;;;;;15.50;5.78;;;4.60;92.90;;;;;;5134394;27;20444;-70
2021/04/16 05:34:26;;;;;;;14.82;5.50;;;4.80;92.70;;;;;;5134109;27;20391;-70
2021/04/16 05:36:53;;;;;;;10.10;5.30;;;4.90;92.60;;;;;;5135589;27;20044;-70
2021/04/16 05:39:19;;;;;;;11.80;5.20;;;5.00;92.60;;;;;;5135593;27;20043;-70
2021/04/16 05:41:45;;;;;;;12.45;5.63;;;5.20;92.50;;;;;;5136018;27;20118;-71
2021/04/16 05:44:11;;;;;;;15.48;5.32;;;5.30;92.20;;;;;;5136131;27;20154;-71
2021/04/16 05:46:36;;;;;;;9.30;6.47;;;5.60;92.20;;;;;;5134407;27;20104;-71
2021/04/16 05:49:02;;;;;;;12.55;5.60;;;5.80;92.00;;;;;;5135536;27;20092;-71
2021/04/16 05:51:28;;;;;;;11.02;5.80;;;5.80;91.80;;;;;;5135385;27;20043;-71
2021/04/16 05:53:54;;;;;;;13.65;5.70;;;6.20;91.80;;;;;;5135336;27;20027;-71
2021/04/16 05:56:20;;;;;;;13.73;5.90;;;6.40;91.30;;;;;;5134872;27;20038;-71
2021/04/16 05:58:46;;;;;;;10.98;5.95;;;6.60;90.90;;;;;;5135165;27;20463;-71
2021/04/16 06:01:12;;;;;;;11.98;5.18;;;6.50;90.70;;;;;;5133838;27;20048;-71
2021/04/16 06:03:39;;;;;;;11.77;4.32;;;6.70;90.70;;;;;;5135272;27;20073;-71
2021/04/16 06:06:05;;;;;;;9.70;4.55;;;6.90;90.50;;;;;;5134274;27;20035;-71
2021/04/16 06:08:31;;;;;;;7.68;3.95;;;7.10;90.30;;;;;;5135455;27;20057;-71
2021/04/16 06:10:59;;;;;;;14.80;4.05;;;7.10;90.20;;;;;;5135155;27;20067;-71
2021/04/16 06:13:24;;;;;;;12.13;4.68;;;7.30;90.10;;;;;;5135323;27;20479;-71
2021/04/16 06:15:52;;;;;;;11.02;3.75;;;7.30;89.80;;;;;;5134954;27;20118;-72
2021/04/16 06:18:21;;;;;;;8.52;3.83;;;7.40;89.60;;;;;;5135047;27;20437;-71
2021/04/16 06:20:47;;;;;;;7.30;4.07;;;7.40;89.40;;;;;;5135895;27;20118;-72
2021/04/16 06:23:13;;;;;;;6.00;3.45;;;7.60;89.20;;;;;;5134807;27;20559;-72
2021/04/16 06:25:39;;;;;;;11.15;3.30;;;7.80;88.40;;;;;;5134173;27;20036;-72
2021/04/16 06:28:06;;;;;;;9.95;3.50;;;7.90;88.10;;;;;;5134428;27;20035;-71
2021/04/16 06:30:32;;;;;;;11.65;3.92;;;8.10;88.50;;;;;;5134876;27;20042;-72
2021/04/16 06:33:00;;;;;;;11.35;3.33;;;8.30;87.20;;;;;;5134376;27;20118;-72
2021/04/16 06:35:25;;;;;;;9.07;3.03;;;8.50;87.30;;;;;;5133988;27;20046;-72
2021/04/16 06:37:51;;;;;;;8.45;3.00;;;8.70;86.50;;;;;;5134910;27;20409;-72
2021/04/16 06:40:17;;;;;;;8.77;3.03;;;8.80;86.10;;;;;;5134318;27;20063;-72
2021/04/16 06:42:46;;;;;;;8.75;2.70;;;8.90;85.30;;;;;;5134125;27;20095;-72
2021/04/16 06:45:16;;;;;;;18.98;3.72;;;9.20;84.70;;;;;;5134010;27;20088;-72
2021/04/16 06:48:04;;;;;;;7.50;2.85;;;9.20;84.60;;;;;;5134724;27;20372;-72
2021/04/16 06:50:41;;;;;;;8.38;3.00;;;9.10;84.80;;;;;;5134672;27;20094;-72
2021/04/16 06:53:36;;;;;;;8.75;3.20;;;9.30;84.70;;;;;;5134256;27;20099;-72
2021/04/16 06:56:11;;;;;;;9.65;2.42;;;9.40;83.80;;;;;;5133859;27;20047;-72
2021/04/16 06:59:00;;;;;;;8.07;2.40;;;9.60;83.90;;;;;;5137952;27;20463;-72
2021/04/16 07:01:53;;;;;;;8.73;2.78;;;9.60;81.90;;;;;;5138946;27;20039;-72
2021/04/16 07:04:36;;;;;;;7.00;2.85;;;9.60;81.70;;;;;;5139001;27;20035;-72
2021/04/16 07:07:15;;;;;;;9.77;2.88;;;9.90;82.00;;;;;;5138622;27;20036;-72
2021/04/16 07:09:46;;;;;;;9.30;2.80;;;10.00;81.40;;;;;;5139137;27;20039;-72
2021/04/16 07:12:19;;;;;;;7.53;3.08;;;10.20;81.80;;;;;;5138657;27;20039;-71
2021/04/16 07:15:20;;;;;;;6.53;3.35;;;10.20;80.30;;;;;;5138260;27;20035;-72
2021/04/16 07:17:47;;;;;;;7.80;2.00;;;10.60;79.20;;;;;;5137109;27;20111;-72
2021/04/16 07:20:18;;;;;;;5.03;2.17;;;10.50;77.80;;;;;;5138088;27;20027;-72
2021/04/16 07:22:55;;;;;;;10.05;2.50;;;10.70;77.00;;;;;;5138483;27;20087;-72
2021/04/16 07:25:50;;;;;;;7.85;2.33;;;10.70;75.90;;;;;;5137853;27;20548;-72
2021/04/16 07:28:46;;;;;;;7.28;2.13;;;10.80;76.10;;;;;;5137719;27;20103;-72
2021/04/16 07:31:24;;;;;;;8.73;2.53;;;10.70;74.50;;;;;;5138012;27;20402;-72
2021/04/16 07:33:51;;;;;;;4.97;1.73;;;10.90;73.60;;;;;;5138294;27;20043;-72
2021/04/16 07:36:35;;;;;;;4.63;2.00;;;10.80;74.00;;;;;;5137534;27;20057;-71
2021/04/16 07:39:13;;;;;;;4.30;1.38;;;11.20;73.20;;;;;;5137745;27;20039;-72
2021/04/16 07:41:42;;;;;;;6.30;1.63;;;11.40;70.10;;;;;;5137664;27;20035;-72
2021/04/16 07:44:21;;;;;;;4.20;1.60;;;11.60;70.90;;;;;;5137784;27;20490;-72
2021/04/16 07:46:52;;;;;;;4.88;1.80;;;11.70;67.20;;;;;;5137385;27;20035;-72
2021/04/16 07:49:23;;;;;;;5.95;1.40;;;11.60;68.20;;;;;;5137761;27;20043;-72
2021/04/16 07:51:51;;;;;;;4.07;1.40;;;11.40;65.70;;;;;;5138388;27;20059;-72
2021/04/16 07:54:28;;;;;;;4.32;1.50;;;11.50;64.60;;;;;;5137762;27;20067;-72
2021/04/16 07:57:17;;;;;;;2.17;1.30;;;11.50;63.70;;;;;;5137522;27;20379;-72
2021/04/16 08:00:03;;;;;;;2.90;1.15;;;11.70;60.00;;;;;;5136402;27;20058;-71
2021/04/16 08:02:36;;;;;;;4.82;1.65;;;11.70;57.80;;;;;;5137979;27;20039;-72
2021/04/16 08:05:14;;;;;;;5.50;1.20;;;11.60;58.40;;;;;;5137018;27;20110;-72
2021/04/16 08:07:39;;;;;;;4.30;1.50;;;11.60;57.90;;;;;;5137142;27;20066;-72
2021/04/16 08:10:18;;;;;;;4.43;1.33;;;11.50;58.10;;;;;;5136849;27;20479;-72
2021/04/16 08:12:44;;;;;;;6.43;1.50;;;11.70;58.00;;;;;;5137011;27;20429;-72
2021/04/16 08:15:20;;;;;;;4.60;1.45;;;11.80;58.20;;;;;;5136671;27;20490;-72
2021/04/16 08:17:48;;;;;;;7.72;1.67;;;11.60;56.40;;;;;;5137003;27;20046;-72
2021/04/16 08:20:30;;;;;;;3.55;1.98;;;11.70;56.70;;;;;;5136973;27;20091;-72
2021/04/16 08:22:58;;;;;;;4.50;1.23;;;11.90;56.60;;;;;;5137235;27;20383;-72
2021/04/16 08:25:38;;;;;;;3.40;1.10;;;12.00;55.30;;;;;;5135531;27;20114;-72
2021/04/16 08:28:29;;;;;;;2.20;1.15;;;12.10;53.40;;;;;;5137122;27;20039;-72
2021/04/16 08:31:06;;;;;;;1.40;0.80;;;12.10;52.30;;;;;;5137216;27;20039;-72
2021/04/16 08:33:43;;;;;;;1.40;0.95;;;12.10;52.10;;;;;;5137072;27;20039;-72
2021/04/16 08:36:47;;;;;;;2.13;0.85;;;11.90;51.80;;;;;;5136311;27;20046;-72
2021/04/16 08:39:31;;;;;;;3.25;1.10;;;12.00;51.40;;;;;;5135412;27;20091;-72
2021/04/16 08:42:09;;;;;;;3.13;1.20;;;11.90;51.60;;;;;;5136612;27;20543;-72
2021/04/16 08:44:47;;;;;;;1.38;0.90;;;12.00;51.50;;;;;;5136115;27;20070;-72
2021/04/16 08:47:25;;;;;;;2.30;1.05;;;11.80;50.60;;;;;;5135271;27;20133;-71
2021/04/16 08:49:53;;;;;;;1.65;0.90;;;12.10;51.90;;;;;;5136445;27;20115;-72
2021/04/16 08:52:43;;;;;;;3.90;1.10;;;11.80;51.70;;;;;;5136315;27;20067;-72
2021/04/16 08:55:26;;;;;;;4.35;0.90;;;11.70;50.90;;;;;;5135939;27;20035;-72
2021/04/16 08:57:55;;;;;;;2.92;0.90;;;12.00;50.90;;;;;;5136257;27;20084;-72
2021/04/16 09:00:52;;;;;;;2.63;1.35;;;12.10;50.70;;;;;;5136519;27;20043;-72
2021/04/16 09:03:26;;;;;;;2.42;1.20;;;12.20;50.80;;;;;;5136424;27;20078;-72
2021/04/16 09:06:01;;;;;;;2.67;1.00;;;12.00;51.20;;;;;;5135714;27;20047;-72
2021/04/16 09:08:41;;;;;;;2.50;0.93;;;12.20;51.30;;;;;;5136034;27;20072;-72
2021/04/16 09:11:10;;;;;;;3.15;1.17;;;12.00;51.20;;;;;;5136335;27;20039;-72
2021/04/16 09:13:39;;;;;;;2.92;1.08;;;12.30;51.20;;;;;;5136156;27;20035;-72
2021/04/16 09:16:17;;;;;;;4.15;1.70;;;12.00;51.00;;;;;;5135430;27;20035;-72
2021/04/16 09:18:44;;;;;;;2.08;1.02;;;12.10;50.80;;;;;;5135728;27;20111;-72
2021/04/16 09:21:15;;;;;;;3.95;1.25;;;12.00;50.90;;;;;;5135191;27;20042;-72
2021/04/16 09:23:41;;;;;;;1.83;0.88;;;12.00;51.40;;;;;;5135761;27;20509;-71
2021/04/16 09:26:08;;;;;;;3.60;1.08;;;12.00;52.20;;;;;;5135622;27;20035;-72
2021/04/16 09:28:50;;;;;;;4.93;1.50;;;12.20;52.50;;;;;;5135565;27;20046;-71
2021/04/16 09:31:21;;;;;;;2.75;1.35;;;11.70;51.20;;;;;;5136003;27;20063;-72
2021/04/16 09:33:48;;;;;;;2.60;1.30;;;12.00;52.80;;;;;;5134624;27;20108;-73
2021/04/16 09:36:26;;;;;;;4.15;1.50;;;11.70;53.80;;;;;;5135325;27;20106;-72
2021/04/16 09:38:51;;;;;;;3.05;1.40;;;11.60;55.20;;;;;;5135298;27;20046;-72
2021/04/16 09:41:22;;;;;;;3.60;1.90;;;11.70;55.80;;;;;;5134502;27;20450;-72
2021/04/16 09:43:59;;;;;;;4.93;1.70;;;11.70;56.40;;;;;;5135507;27;20035;-72
2021/04/16 09:46:31;;;;;;;4.75;2.10;;;11.60;56.40;;;;;;5134965;27;20046;-72
2021/04/16 09:48:58;;;;;;;3.75;1.40;;;11.70;56.80;;;;;;5134036;27;20042;-72
2021/04/16 09:51:45;;;;;;;3.63;1.50;;;11.70;57.40;;;;;;5135096;27;20046;-72
2021/04/16 09:54:23;;;;;;;7.38;1.80;;;11.40;57.40;;;;;;5135037;27;20035;-72
2021/04/16 09:57:04;;;;;;;3.95;1.55;;;11.60;59.00;;;;;;5134837;27;20035;-72
2021/04/16 09:59:33;;;;;;;4.60;1.75;;;11.80;58.50;;;;;;5134365;27;20035;-72
2021/04/16 10:02:16;;;;;;;5.13;1.75;;;11.60;58.70;;;;;;5134811;27;20043;-72
2021/04/16 10:04:53;;;;;;;4.85;1.73;;;11.60;58.40;;;;;;5134732;27;20057;-72
2021/04/16 10:07:23;;;;;;;7.45;2.47;;;11.80;58.40;;;;;;5134646;27;20037;-72
2021/04/16 10:09:49;;;;;;;3.05;1.60;;;11.90;58.60;;;;;;5135124;27;20035;-72
2021/04/16 10:12:27;;;;;;;4.30;1.70;;;11.90;58.50;;;;;;5135384;27;20114;-72
2021/04/16 10:14:53;;;;;;;3.65;2.00;;;11.50;58.20;;;;;;5134405;27;20031;-72
2021/04/16 10:17:21;;;;;;;3.90;1.85;;;11.30;58.60;;;;;;5135006;27;20461;-72
2021/04/16 10:19:50;;;;;;;3.13;1.67;;;11.50;60.30;;;;;;5133880;27;20031;-72
2021/04/16 10:22:34;;;;;;;2.78;1.60;;;11.50;59.80;;;;;;5133301;27;20122;-72
2021/04/16 12:38:45;;;;;;;9.60;4.45;;;11.40;65.60;;;;;;5116186;28;20367;-72
2021/04/16 12:41:16;;;;;;;6.63;3.13;;;11.40;66.40;;;;;;5116220;28;20137;-72
2021/04/16 12:43:44;;;;;;;11.10;3.83;;;11.60;68.10;;;;;;5115987;28;20035;-72
2021/04/16 12:46:13;;;;;;;5.38;3.15;;;11.50;67.50;;;;;;5115336;28;20498;-73
2021/04/16 12:48:39;;;;;;;8.43;3.88;;;11.50;67.60;;;;;;5116250;28;20505;-72
2021/04/16 12:51:04;;;;;;;7.57;3.30;;;11.40;67.00;;;;;;5114398;28;20036;-73
2021/04/16 12:53:30;;;;;;;6.90;3.65;;;11.50;66.10;;;;;;5114436;28;20043;-72
2021/04/16 12:55:55;;;;;;;7.35;3.67;;;11.50;64.80;;;;;;5114261;27;20038;-73
2021/04/16 12:58:29;;;;;;;8.95;4.85;;;11.70;65.60;;;;;;5115681;28;20052;-72
2021/04/16 13:00:57;;;;;;;10.48;3.90;;;11.80;65.10;;;;;;5114563;28;20031;-72
2021/04/16 13:03:43;;;;;;;9.55;4.40;;;11.60;65.90;;;;;;5115700;28;20035;-72
2021/04/16 13:06:26;;;;;;;6.53;3.65;;;11.80;67.70;;;;;;5115301;28;20066;-73
2021/04/16 13:08:53;;;;;;;15.30;4.15;;;11.80;63.50;;;;;;5114768;28;20040;-72
2021/04/16 13:11:20;;;;;;;9.82;4.65;;;11.80;65.80;;;;;;5115371;28;20038;-71
2021/04/16 13:13:46;;;;;;;10.85;4.25;;;11.80;65.10;;;;;;5115607;28;20056;-72
2021/04/16 13:16:12;;;;;;;7.05;3.25;;;11.90;66.20;;;;;;5114032;27;20113;-72
2021/04/16 13:18:41;;;;;;;7.82;3.42;;;11.90;65.40;;;;;;5115832;28;20371;-72
2021/04/16 13:21:17;;;;;;;9.38;3.75;;;11.90;65.80;;;;;;5114774;28;20131;-72
2021/04/16 13:23:43;;;;;;;9.43;3.67;;;12.00;64.90;;;;;;5115710;28;20042;-72
2021/04/16 13:26:11;;;;;;;7.53;3.13;;;12.00;62.50;;;;;;5114824;28;20043;-72
2021/04/16 13:28:37;;;;;;;7.20;3.00;;;11.90;61.50;;;;;;5114285;28;20039;-72
2021/04/16 13:31:04;;;;;;;7.07;3.15;;;11.80;61.70;;;;;;5114042;28;20031;-72
2021/04/16 13:33:34;;;;;;;8.15;3.53;;;11.80;61.80;;;;;;5113863;28;20028;-72
2021/04/16 13:36:00;;;;;;;7.25;3.15;;;11.90;62.80;;;;;;5114867;28;20042;-69
2021/04/16 13:38:30;;;;;;;8.30;3.67;;;12.20;63.70;;;;;;5114928;28;20039;-68
2021/04/16 13:40:57;;;;;;;5.50;2.70;;;12.20;63.20;;;;;;5114483;27;20134;-68
2021/04/16 13:43:24;;;;;;;9.40;3.13;;;12.30;60.50;;;;;;5115165;28;20031;-68
2021/04/16 13:45:49;;;;;;;4.60;2.53;;;12.20;60.90;;;;;;5114251;28;20043;-69
2021/04/16 13:48:16;;;;;;;5.63;2.58;;;12.30;59.30;;;;;;5114915;28;20441;-69
2021/04/16 13:50:43;;;;;;;6.10;2.90;;;12.40;59.70;;;;;;5114898;28;20031;-69
2021/04/16 13:53:09;;;;;;;6.05;2.83;;;12.10;59.30;;;;;;5114592;28;20092;-69
2021/04/16 13:55:35;;;;;;;4.55;2.80;;;12.10;58.60;;;;;;5114217;28;20036;-69
2021/04/16 13:58:01;;;;;;;6.07;3.38;;;12.00;58.90;;;;;;5114537;28;20040;-69
2021/04/16 14:00:29;;;;;;;6.50;2.90;;;12.00;58.70;;;;;;5114539;28;20032;-69
2021/04/16 14:03:18;;;;;;;4.43;2.65;;;12.00;57.70;;;;;;5114903;28;20047;-69
2021/04/16 14:05:50;;;;;;;5.00;2.92;;;12.00;57.20;;;;;;5113788;28;20032;-69
2021/04/16 14:08:33;;;;;;;7.80;2.72;;;11.90;57.30;;;;;;5114304;28;20047;-69
2021/04/16 14:11:00;;;;;;;5.32;2.70;;;12.00;57.40;;;;;;5114080;28;20490;-69
2021/04/16 14:13:28;;;;;;;7.60;3.05;;;12.00;56.70;;;;;;5113132;28;20040;-69
2021/04/16 14:16:08;;;;;;;3.40;2.15;;;12.20;56.20;;;;;;5112454;28;20027;-69
2021/04/16 14:18:40;;;;;;;4.68;2.20;;;12.00;55.20;;;;;;5112999;28;20039;-70
2021/04/16 14:21:13;;;;;;;4.30;2.55;;;12.00;54.70;;;;;;5114698;28;20514;-69
2021/04/16 14:23:39;;;;;;;5.25;2.25;;;12.00;55.00;;;;;;5114490;28;20039;-71
2021/04/16 14:26:05;;;;;;;4.63;2.42;;;11.90;54.80;;;;;;5113985;28;20040;-69
2021/04/16 14:28:31;;;;;;;3.88;2.08;;;12.00;53.80;;;;;;5114915;28;20134;-69
2021/04/16 14:30:57;;;;;;;5.00;1.85;;;11.90;53.80;;;;;;5113862;28;20059;-69
2021/04/16 14:33:29;;;;;;;4.43;1.70;;;12.00;51.60;;;;;;5113926;28;20047;-69
2021/04/16 14:35:56;;;;;;;2.63;1.27;;;11.70;50.40;;;;;;5113937;28;20090;-69
2021/04/16 14:38:23;;;;;;;4.88;1.50;;;11.60;48.20;;;;;;5113835;28;20046;-68
2021/04/16 14:40:49;;;;;;;3.88;2.08;;;11.60;48.60;;;;;;5113878;28;20040;-68
2021/04/16 14:43:15;;;;;;;2.75;1.20;;;11.60;48.90;;;;;;5114400;28;20063;-68
2021/04/16 14:45:44;;;;;;;4.30;1.33;;;11.50;49.50;;;;;;5112302;28;20081;-69
2021/04/16 14:48:10;;;;;;;3.55;1.58;;;11.60;48.30;;;;;;5113791;28;20036;-69
2021/04/16 14:50:35;;;;;;;4.18;1.85;;;11.80;50.50;;;;;;5114162;28;20039;-68
2021/04/16 14:53:05;;;;;;;4.38;2.30;;;11.70;49.70;;;;;;5114265;28;20092;-68
2021/04/16 14:55:34;;;;;;;3.70;1.98;;;11.70;50.30;;;;;;5113332;28;20035;-68
2021/04/16 14:58:00;;;;;;;5.75;2.35;;;11.50;50.40;;;;;;5113552;28;20043;-68
2021/04/16 15:00:29;;;;;;;5.10;2.25;;;11.20;51.10;;;;;;5112057;28;20114;-68
2021/04/16 15:02:56;;;;;;;4.13;2.30;;;11.40;51.20;;;;;;5113782;28;20114;-68
2021/04/16 15:05:22;;;;;;;3.53;1.73;;;11.30;51.20;;;;;;5113483;28;20046;-68
2021/04/16 15:07:59;;;;;;;7.05;2.88;;;11.30;50.50;;;;;;5113352;28;20459;-68
2021/04/16 15:10:30;;;;;;;6.38;2.90;;;11.40;51.30;;;;;;5113765;28;20042;-68
2021/04/16 15:12:56;;;;;;;9.15;2.72;;;11.20;53.40;;;;;;5113565;28;20039;-68
2021/04/16 15:15:34;;;;;;;4.70;3.40;;;11.20;54.10;;;;;;5113327;28;20562;-68
2021/04/16 15:18:01;;;;;;;13.45;4.00;;;11.20;54.90;;;;;;5113542;28;20039;-68